sensor_id;sensor_type;location;lat;lon;timestamp;pressure;altitude;pressure_sealevel;temperature;humidity
4392;BME280;2210;51.938;8.488;2023-08-17T00:03:14;100804.94;;;18.64;100.00
4392;BME280;2210;51.938;8.488;2023-08-17T00:07:17;100812.81;;;18.41;100.00
4392;BME280;2210;51.938;8.488;2023-08-17T00:11:20;100800.00;;;18.19;100.00
4392;BME280;2210;51.938;8.488;2023-08-17T00:15:21;100800.59;;;18.01;100.00
4392;BME280;2210;51.938;8.488;2023-08-17T00:19:21;100789.44;;;17.96;100.00
4392;BME280;2210;51.938;8.488;2023-08-17T00:23:22;100779.97;;;17.86;100.00
4392;BME280;2210;51.938;8.488;2023-08-17T00:27:22;100779.94;;;17.71;100.00
4392;BME280;2210;51.938;8.488;2023-08-17T00:31:23;100777.16;;;17.71;100.00
4392;BME280;2210;51.938;8.488;2023-08-17T00:35:23;100781.88;;;17.81;100.00
4392;BME280;2210;51.938;8.488;2023-08-17T00:39:36;100788.84;;;17.78;100.00
4392;BME280;2210;51.938;8.488;2023-08-17T00:43:42;100785.53;;;17.71;100.00
4392;BME280;2210;51.938;8.488;2023-08-17T00:47:43;100787.50;;;17.70;100.00
4392;BME280;2210;51.938;8.488;2023-08-17T00:51:43;100788.84;;;17.78;100.00
4392;BME280;2210;51.938;8.488;2023-08-17T00:55:44;100775.75;;;17.74;100.00
4392;BME280;2210;51.938;8.488;2023-08-17T00:59:47;100794.44;;;17.63;100.00
4392;BME280;2210;51.938;8.488;2023-08-17T01:03:48;100789.41;;;17.75;100.00
4392;BME280;2210;51.938;8.488;2023-08-17T01:07:48;100790.28;;;17.65;100.00
4392;BME280;2210;51.938;8.488;2023-08-17T01:11:58;100786.91;;;17.68;100.00
4392;BME280;2210;51.938;8.488;2023-08-17T01:16:02;100786.91;;;17.63;100.00
4392;BME280;2210;51.938;8.488;2023-08-17T01:20:05;100782.19;;;17.64;100.00
4392;BME280;2210;51.938;8.488;2023-08-17T01:24:14;100778.81;;;17.62;100.00
4392;BME280;2210;51.938;8.488;2023-08-17T01:28:17;100784.97;;;17.69;100.00
4392;BME280;2210;51.938;8.488;2023-08-17T01:32:40;100791.66;;;17.83;100.00
4392;BME280;2210;51.938;8.488;2023-08-17T01:36:48;100802.25;;;17.66;100.00
4392;BME280;2210;51.938;8.488;2023-08-17T01:41:01;100808.09;;;17.64;100.00
4392;BME280;2210;51.938;8.488;2023-08-17T01:45:05;100818.97;;;17.45;100.00
4392;BME280;2210;51.938;8.488;2023-08-17T01:49:06;100844.63;;;17.58;100.00
4392;BME280;2210;51.938;8.488;2023-08-17T01:53:06;100855.19;;;17.30;100.00
4392;BME280;2210;51.938;8.488;2023-08-17T01:57:09;100833.44;;;17.37;100.00
4392;BME280;2210;51.938;8.488;2023-08-17T02:01:10;100832.91;;;17.35;100.00
4392;BME280;2210;51.938;8.488;2023-08-17T02:05:10;100855.19;;;17.30;100.00
4392;BME280;2210;51.938;8.488;2023-08-17T02:09:16;100863.00;;;17.38;100.00
4392;BME280;2210;51.938;8.488;2023-08-17T02:13:18;100859.09;;;17.39;100.00
4392;BME280;2210;51.938;8.488;2023-08-17T02:17:18;100845.16;;;17.34;100.00
4392;BME280;2210;51.938;8.488;2023-08-17T02:21:19;100842.09;;;17.41;100.00
4392;BME280;2210;51.938;8.488;2023-08-17T02:25:19;100850.19;;;17.42;100.00
4392;BME280;2210;51.938;8.488;2023-08-17T02:29:19;100845.97;;;17.34;100.00
4392;BME280;2210;51.938;8.488;2023-08-17T02:33:20;100844.31;;;17.39;100.00
4392;BME280;2210;51.938;8.488;2023-08-17T02:37:20;100846.00;;;17.45;100.00
4392;BME280;2210;51.938;8.488;2023-08-17T02:41:20;100830.41;;;17.49;100.00
4392;BME280;2210;51.938;8.488;2023-08-17T02:45:21;100829.03;;;17.51;100.00
4392;BME280;2210;51.938;8.488;2023-08-17T02:49:21;100815.06;;;17.46;100.00
4392;BME280;2210;51.938;8.488;2023-08-17T02:53:21;100812.56;;;17.45;100.00
4392;BME280;2210;51.938;8.488;2023-08-17T02:57:21;100807.81;;;17.40;100.00
4392;BME280;2210;51.938;8.488;2023-08-17T03:01:22;100807.25;;;17.33;100.00
4392;BME280;2210;51.938;8.488;2023-08-17T03:05:22;100809.19;;;17.32;100.00
4392;BME280;2210;51.938;8.488;2023-08-17T03:09:22;100802.50;;;17.28;100.00
4392;BME280;2210;51.938;8.488;2023-08-17T03:13:23;100795.50;;;17.21;100.00
4392;BME280;2210;51.938;8.488;2023-08-17T03:17:23;100794.16;;;17.28;100.00
4392;BME280;2210;51.938;8.488;2023-08-17T03:21:26;100796.63;;;17.25;100.00
4392;BME280;2210;51.938;8.488;2023-08-17T03:25:27;100789.41;;;17.34;100.00
4392;BME280;2210;51.938;8.488;2023-08-17T03:29:33;100789.41;;;17.34;100.00
4392;BME280;2210;51.938;8.488;2023-08-17T03:33:33;100766.25;;;17.33;100.00
4392;BME280;2210;51.938;8.488;2023-08-17T03:37:37;100767.38;;;17.27;100.00
4392;BME280;2210;51.938;8.488;2023-08-17T03:41:41;100765.44;;;17.33;100.00
4392;BME280;2210;51.938;8.488;2023-08-17T03:45:41;100769.06;;;17.28;100.00
4392;BME280;2210;51.938;8.488;2023-08-17T03:49:48;100772.69;;;17.34;100.00
4392;BME280;2210;51.938;8.488;2023-08-17T03:53:58;100772.41;;;17.35;100.00
4392;BME280;2210;51.938;8.488;2023-08-17T03:57:58;100768.78;;;17.35;100.00
4392;BME280;2210;51.938;8.488;2023-08-17T04:01:58;100770.97;;;17.23;100.00
4392;BME280;2210;51.938;8.488;2023-08-17T04:06:04;100760.38;;;17.04;100.00
4392;BME280;2210;51.938;8.488;2023-08-17T04:10:16;100758.97;;;17.12;100.00
4392;BME280;2210;51.938;8.488;2023-08-17T04:14:17;100771.50;;;16.99;100.00
4392;BME280;2210;51.938;8.488;2023-08-17T04:18:17;100778.22;;;17.08;100.00
4392;BME280;2210;51.938;8.488;2023-08-17T04:22:20;100773.19;;;17.00;100.00
4392;BME280;2210;51.938;8.488;2023-08-17T04:26:20;100781.28;;;17.12;100.00
4392;BME280;2210;51.938;8.488;2023-08-17T04:30:20;100792.41;;;17.12;100.00
4392;BME280;2210;51.938;8.488;2023-08-17T04:34:21;100788.25;;;17.14;100.00
4392;BME280;2210;51.938;8.488;2023-08-17T04:38:21;100781.28;;;17.07;100.00
4392;BME280;2210;51.938;8.488;2023-08-17T04:42:22;100789.63;;;17.01;100.00
4392;BME280;2210;51.938;8.488;2023-08-17T04:46:22;100793.78;;;16.94;100.00
4392;BME280;2210;51.938;8.488;2023-08-17T04:50:22;100803.53;;;16.96;100.00
4392;BME280;2210;51.938;8.488;2023-08-17T04:54:23;100818.31;;;17.07;100.00
4392;BME280;2210;51.938;8.488;2023-08-17T04:58:23;100813.34;;;17.19;100.00
4392;BME280;2210;51.938;8.488;2023-08-17T05:02:29;100816.69;;;17.27;100.00
4392;BME280;2210;51.938;8.488;2023-08-17T05:06:30;100807.78;;;17.25;100.00
4392;BME280;2210;51.938;8.488;2023-08-17T05:10:37;100823.94;;;17.17;100.00
4392;BME280;2210;51.938;8.488;2023-08-17T05:38:57;100824.44;;;17.04;100.00
4392;BME280;2210;51.938;8.488;2023-08-17T05:42:57;100830.31;;;17.02;100.00
4392;BME280;2210;51.938;8.488;2023-08-17T05:46:57;100831.09;;;16.98;100.00
4392;BME280;2210;51.938;8.488;2023-08-17T05:51:00;100826.91;;;16.95;100.00
4392;BME280;2210;51.938;8.488;2023-08-17T05:55:01;100824.41;;;16.94;100.00
4392;BME280;2210;51.938;8.488;2023-08-17T05:59:02;100828.91;;;17.00;100.00
4392;BME280;2210;51.938;8.488;2023-08-17T06:03:08;100828.63;;;17.12;100.00
4392;BME280;2210;51.938;8.488;2023-08-17T06:07:09;100837.84;;;17.23;100.00
4392;BME280;2210;51.938;8.488;2023-08-17T06:11:09;100828.13;;;17.30;100.00
4392;BME280;2210;51.938;8.488;2023-08-17T06:15:09;100822.56;;;17.35;100.00
4392;BME280;2210;51.938;8.488;2023-08-17T06:19:13;100830.63;;;17.27;100.00
4392;BME280;2210;51.938;8.488;2023-08-17T06:23:13;100843.16;;;17.29;100.00
4392;BME280;2210;51.938;8.488;2023-08-17T06:27:16;100838.47;;;17.40;100.00
4392;BME280;2210;51.938;8.488;2023-08-17T06:31:17;100831.22;;;17.44;100.00
4392;BME280;2210;51.938;8.488;2023-08-17T06:35:17;100827.91;;;17.47;100.00
4392;BME280;2210;51.938;8.488;2023-08-17T06:39:29;100819.81;;;17.51;100.00
4392;BME280;2210;51.938;8.488;2023-08-17T06:43:29;100815.88;;;17.47;100.00
4392;BME280;2210;51.938;8.488;2023-08-17T06:47:30;100814.22;;;17.51;100.00
4392;BME280;2210;51.938;8.488;2023-08-17T06:51:36;100819.28;;;17.54;100.00
4392;BME280;2210;51.938;8.488;2023-08-17T06:55:40;100817.59;;;17.53;100.00
4392;BME280;2210;51.938;8.488;2023-08-17T06:59:40;100828.19;;;17.61;100.00
4392;BME280;2210;51.938;8.488;2023-08-17T07:03:46;100830.41;;;17.64;100.00
4392;BME280;2210;51.938;8.488;2023-08-17T07:07:47;100821.78;;;17.71;100.00
4392;BME280;2210;51.938;8.488;2023-08-17T07:11:48;100822.91;;;17.80;100.00
4392;BME280;2210;51.938;8.488;2023-08-17T07:15:48;100820.38;;;17.74;100.00
4392;BME280;2210;51.938;8.488;2023-08-17T07:19:48;100828.47;;;17.75;100.00
4392;BME280;2210;51.938;8.488;2023-08-17T07:23:50;100826.50;;;17.81;100.00
4392;BME280;2210;51.938;8.488;2023-08-17T07:27:51;100828.47;;;17.85;100.00
4392;BME280;2210;51.938;8.488;2023-08-17T07:31:54;100828.19;;;17.87;100.00
4392;BME280;2210;51.938;8.488;2023-08-17T07:35:54;100842.19;;;17.92;100.00
4392;BME280;2210;51.938;8.488;2023-08-17T07:39:57;100844.94;;;17.82;100.00
4392;BME280;2210;51.938;8.488;2023-08-17T07:43:58;100853.59;;;17.91;100.00
4392;BME280;2210;51.938;8.488;2023-08-17T07:47:58;100863.63;;;17.86;100.00
4392;BME280;2210;51.938;8.488;2023-08-17T07:51:59;100859.47;;;17.94;100.00
4392;BME280;2210;51.938;8.488;2023-08-17T07:55:59;100858.91;;;17.92;100.00
4392;BME280;2210;51.938;8.488;2023-08-17T08:00:09;100858.06;;;17.92;100.00
4392;BME280;2210;51.938;8.488;2023-08-17T08:04:12;100856.97;;;17.98;100.00
4392;BME280;2210;51.938;8.488;2023-08-17T08:08:12;100865.91;;;17.95;100.00
4392;BME280;2210;51.938;8.488;2023-08-17T08:12:14;100865.63;;;17.96;100.00
4392;BME280;2210;51.938;8.488;2023-08-17T08:16:14;100870.63;;;18.05;100.00
4392;BME280;2210;51.938;8.488;2023-08-17T08:20:15;100873.72;;;18.03;100.00
4392;BME280;2210;51.938;8.488;2023-08-17T08:24:18;100865.31;;;17.98;100.00
4392;BME280;2210;51.938;8.488;2023-08-17T08:28:18;100865.88;;;18.05;100.00
4392;BME280;2210;51.938;8.488;2023-08-17T08:32:18;100869.25;;;18.07;100.00
4392;BME280;2210;51.938;8.488;2023-08-17T08:36:19;100871.47;;;18.10;100.00
4392;BME280;2210;51.938;8.488;2023-08-17T08:40:20;100872.84;;;18.13;100.00
4392;BME280;2210;51.938;8.488;2023-08-17T08:44:26;100879.56;;;18.12;100.00
4392;BME280;2210;51.938;8.488;2023-08-17T08:48:38;100868.69;;;18.15;100.00
4392;BME280;2210;51.938;8.488;2023-08-17T08:53:21;100869.78;;;18.14;100.00
4392;BME280;2210;51.938;8.488;2023-08-17T08:57:27;100863.63;;;18.17;100.00
4392;BME280;2210;51.938;8.488;2023-08-17T09:01:38;100859.16;;;18.22;100.00
4392;BME280;2210;51.938;8.488;2023-08-17T09:05:39;100853.03;;;18.25;100.00
4392;BME280;2210;51.938;8.488;2023-08-17T09:09:40;100860.56;;;18.29;100.00
4392;BME280;2210;51.938;8.488;2023-08-17T09:13:41;100853.03;;;18.25;100.00
4392;BME280;2210;51.938;8.488;2023-08-17T09:17:47;100848.84;;;18.22;100.00
4392;BME280;2210;51.938;8.488;2023-08-17T09:21:49;100843.53;;;18.31;100.00
4392;BME280;2210;51.938;8.488;2023-08-17T09:25:56;100852.47;;;18.33;100.00
4392;BME280;2210;51.938;8.488;2023-08-17T09:30:09;100847.44;;;18.35;100.00
4392;BME280;2210;51.938;8.488;2023-08-17T09:34:10;100842.41;;;18.42;100.00
4392;BME280;2210;51.938;8.488;2023-08-17T09:38:10;100843.53;;;18.41;100.00
4392;BME280;2210;51.938;8.488;2023-08-17T09:42:11;100840.72;;;18.41;100.00
4392;BME280;2210;51.938;8.488;2023-08-17T09:46:14;100845.44;;;18.41;100.00
4392;BME280;2210;51.938;8.488;2023-08-17T09:50:22;100848.25;;;18.46;100.00
4392;BME280;2210;51.938;8.488;2023-08-17T09:54:26;100843.50;;;18.46;100.00
4392;BME280;2210;51.938;8.488;2023-08-17T09:58:30;100840.97;;;18.50;100.00
4392;BME280;2210;51.938;8.488;2023-08-17T10:02:36;100838.19;;;18.50;100.00
4392;BME280;2210;51.938;8.488;2023-08-17T10:06:43;100851.31;;;18.54;100.00
4392;BME280;2210;51.938;8.488;2023-08-17T10:10:44;100852.94;;;18.66;100.00
4392;BME280;2210;51.938;8.488;2023-08-17T10:14:49;100860.22;;;18.62;100.00
4392;BME280;2210;51.938;8.488;2023-08-17T10:19:24;100848.22;;;18.61;100.00
4392;BME280;2210;51.938;8.488;2023-08-17T10:23:27;100846.25;;;18.62;100.00
4392;BME280;2210;51.938;8.488;2023-08-17T10:27:28;100849.03;;;18.67;100.00
4392;BME280;2210;51.938;8.488;2023-08-17T10:31:34;100850.69;;;18.73;100.00
4392;BME280;2210;51.938;8.488;2023-08-17T10:35:34;100850.38;;;18.80;100.00
4392;BME280;2210;51.938;8.488;2023-08-17T10:39:48;100855.16;;;18.74;100.00
4392;BME280;2210;51.938;8.488;2023-08-17T10:43:59;100863.53;;;18.69;100.00
4392;BME280;2210;51.938;8.488;2023-08-17T10:52:09;100866.09;;;18.65;100.00
4392;BME280;2210;51.938;8.488;2023-08-17T10:56:13;100870.22;;;18.73;100.00
4392;BME280;2210;51.938;8.488;2023-08-17T11:04:20;100875.25;;;18.76;100.00
4392;BME280;2210;51.938;8.488;2023-08-17T11:08:34;100871.38;;;18.72;100.00
4392;BME280;2210;51.938;8.488;2023-08-17T11:12:35;100875.56;;;18.69;100.00
4392;BME280;2210;51.938;8.488;2023-08-17T11:16:36;100874.41;;;18.76;100.00
4392;BME280;2210;51.938;8.488;2023-08-17T11:20:38;100883.66;;;18.76;100.00
4392;BME280;2210;51.938;8.488;2023-08-17T11:24:39;100883.06;;;18.74;100.00
4392;BME280;2210;51.938;8.488;2023-08-17T11:28:40;100880.81;;;18.81;100.00
4392;BME280;2210;51.938;8.488;2023-08-17T11:32:41;100881.91;;;18.85;100.00
4392;BME280;2210;51.938;8.488;2023-08-17T11:36:41;100873.53;;;18.85;100.00
4392;BME280;2210;51.938;8.488;2023-08-17T11:40:42;100869.69;;;18.76;100.00
4392;BME280;2210;51.938;8.488;2023-08-17T11:44:42;100868.22;;;18.84;100.00
4392;BME280;2210;51.938;8.488;2023-08-17T11:48:42;100878.00;;;19.02;100.00
4392;BME280;2210;51.938;8.488;2023-08-17T11:52:43;100875.50;;;19.00;100.00
4392;BME280;2210;51.938;8.488;2023-08-17T11:56:43;100869.56;;;19.07;100.00
4392;BME280;2210;51.938;8.488;2023-08-17T12:00:44;100866.25;;;19.05;100.00
4392;BME280;2210;51.938;8.488;2023-08-17T12:09:00;100878.84;;;18.97;100.00
4392;BME280;2210;51.938;8.488;2023-08-17T12:13:10;100875.53;;;18.90;100.00
4392;BME280;2210;51.938;8.488;2023-08-17T12:17:18;100870.75;;;18.96;100.00
4392;BME280;2210;51.938;8.488;2023-08-17T12:21:24;100873.53;;;18.85;100.00
4392;BME280;2210;51.938;8.488;2023-08-17T12:25:28;100871.03;;;18.94;100.00
4392;BME280;2210;51.938;8.488;2023-08-17T12:29:28;100869.03;;;19.05;100.00
4392;BME280;2210;51.938;8.488;2023-08-17T12:33:29;100858.59;;;19.26;100.00
4392;BME280;2210;51.938;8.488;2023-08-17T12:37:29;100862.41;;;19.41;100.00
4392;BME280;2210;51.938;8.488;2023-08-17T12:41:30;100871.06;;;19.44;100.00
4392;BME280;2210;51.938;8.488;2023-08-17T12:45:30;100864.94;;;19.37;100.00
4392;BME280;2210;51.938;8.488;2023-08-17T12:49:35;100868.88;;;19.36;100.00
4392;BME280;2210;51.938;8.488;2023-08-17T12:53:35;100876.13;;;19.37;100.00
4392;BME280;2210;51.938;8.488;2023-08-17T12:57:35;100873.34;;;19.37;100.00
4392;BME280;2210;51.938;8.488;2023-08-17T13:01:36;100875.09;;;19.28;100.00
4392;BME280;2210;51.938;8.488;2023-08-17T13:05:36;100868.13;;;19.20;100.00
4392;BME280;2210;51.938;8.488;2023-08-17T13:09:36;100867.81;;;19.27;100.00
4392;BME280;2210;51.938;8.488;2023-08-17T13:13:42;100866.38;;;19.34;100.00
4392;BME280;2210;51.938;8.488;2023-08-17T13:17:43;100871.09;;;19.39;100.00
4392;BME280;2210;51.938;8.488;2023-08-17T13:21:49;100875.56;;;19.45;100.00
4392;BME280;2210;51.938;8.488;2023-08-17T13:26:01;100871.69;;;19.36;100.00
4392;BME280;2210;51.938;8.488;2023-08-17T13:30:16;100868.91;;;19.31;100.00
4392;BME280;2210;51.938;8.488;2023-08-17T13:34:17;100863.31;;;19.31;100.00
4392;BME280;2210;51.938;8.488;2023-08-17T13:38:17;100860.41;;;19.46;100.00
4392;BME280;2210;51.938;8.488;2023-08-17T13:42:18;100853.69;;;19.52;100.00
4392;BME280;2210;51.938;8.488;2023-08-17T13:46:21;100855.38;;;19.48;100.00
4392;BME280;2210;51.938;8.488;2023-08-17T13:50:31;100865.41;;;19.54;100.00
4392;BME280;2210;51.938;8.488;2023-08-17T13:54:32;100865.50;;;19.39;100.00
4392;BME280;2210;51.938;8.488;2023-08-17T13:58:35;100864.59;;;19.49;100.00
4392;BME280;2210;51.938;8.488;2023-08-17T14:02:41;100868.28;;;19.44;100.00
4392;BME280;2210;51.938;8.488;2023-08-17T14:06:42;100858.19;;;19.48;100.00
4392;BME280;2210;51.938;8.488;2023-08-17T14:11:07;100859.91;;;19.39;100.00
4392;BME280;2210;51.938;8.488;2023-08-17T14:20:44;100861.59;;;19.40;100.00
4392;BME280;2210;51.938;8.488;2023-08-17T14:25:36;100855.50;;;19.28;100.00
4392;BME280;2210;51.938;8.488;2023-08-17T14:30:06;100862.53;;;19.20;100.00
4392;BME280;2210;51.938;8.488;2023-08-17T14:34:29;100863.63;;;19.29;100.00
4392;BME280;2210;51.938;8.488;2023-08-17T14:38:33;100859.66;;;19.35;100.00
4392;BME280;2210;51.938;8.488;2023-08-17T14:57:31;100871.44;;;19.27;100.00
4392;BME280;2210;51.938;8.488;2023-08-17T15:02:00;100863.44;;;19.05;100.00
4392;BME280;2210;51.938;8.488;2023-08-17T15:12:05;100858.38;;;19.07;100.00
4392;BME280;2210;51.938;8.488;2023-08-17T15:16:05;100845.50;;;19.11;100.00
4392;BME280;2210;51.938;8.488;2023-08-17T15:20:16;100855.34;;;19.09;100.00
4392;BME280;2210;51.938;8.488;2023-08-17T15:24:16;100852.56;;;19.03;100.00
4392;BME280;2210;51.938;8.488;2023-08-17T15:28:20;100845.28;;;19.08;100.00
4392;BME280;2210;51.938;8.488;2023-08-17T15:40:46;100844.97;;;19.09;100.00
4392;BME280;2210;51.938;8.488;2023-08-17T15:44:50;100838.09;;;18.91;100.00
4392;BME280;2210;51.938;8.488;2023-08-17T15:48:56;100833.91;;;18.78;100.00
4392;BME280;2210;51.938;8.488;2023-08-17T15:52:59;100830.59;;;18.71;100.00
4392;BME280;2210;51.938;8.488;2023-08-17T15:56:59;100827.81;;;18.66;100.00
4392;BME280;2210;51.938;8.488;2023-08-17T16:01:03;100816.09;;;18.59;100.00
4392;BME280;2210;51.938;8.488;2023-08-17T16:05:09;100822.81;;;18.58;100.00
4392;BME280;2210;51.938;8.488;2023-08-17T16:09:13;100831.19;;;18.63;100.00
4392;BME280;2210;51.938;8.488;2023-08-17T16:13:13;100828.41;;;18.52;100.00
4392;BME280;2210;51.938;8.488;2023-08-17T16:17:13;100845.44;;;18.51;100.00
4392;BME280;2210;51.938;8.488;2023-08-17T16:21:17;100835.97;;;18.42;100.00
4392;BME280;2210;51.938;8.488;2023-08-17T16:25:17;100818.38;;;18.41;100.00
4392;BME280;2210;51.938;8.488;2023-08-17T16:29:27;100808.63;;;18.39;100.00
4392;BME280;2210;51.938;8.488;2023-08-17T16:33:27;100810.03;;;18.36;100.00
4392;BME280;2210;51.938;8.488;2023-08-17T16:37:28;100806.13;;;18.27;100.00
4392;BME280;2210;51.938;8.488;2023-08-17T16:41:51;100811.72;;;18.32;100.00
4392;BME280;2210;51.938;8.488;2023-08-17T16:46:00;100816.19;;;18.28;100.00
4392;BME280;2210;51.938;8.488;2023-08-17T16:50:04;100814.22;;;18.28;100.00
4392;BME280;2210;51.938;8.488;2023-08-17T16:54:04;100820.09;;;18.27;100.00
4392;BME280;2210;51.938;8.488;2023-08-17T16:58:05;100824.56;;;18.33;100.00
4392;BME280;2210;51.938;8.488;2023-08-17T17:02:12;100822.34;;;18.19;100.00
4392;BME280;2210;51.938;8.488;2023-08-17T17:06:12;100820.38;;;18.30;100.00
4392;BME280;2210;51.938;8.488;2023-08-17T17:10:15;100829.59;;;18.15;100.00
4392;BME280;2210;51.938;8.488;2023-08-17T17:14:18;100831.00;;;18.18;100.00
4392;BME280;2210;51.938;8.488;2023-08-17T17:18:18;100830.72;;;18.04;100.00
4392;BME280;2210;51.938;8.488;2023-08-17T17:22:19;100838.53;;;17.97;100.00
4392;BME280;2210;51.938;8.488;2023-08-17T17:26:30;100847.47;;;17.99;100.00
4392;BME280;2210;51.938;8.488;2023-08-17T17:30:32;100841.31;;;17.92;100.00
4392;BME280;2210;51.938;8.488;2023-08-17T17:34:35;100858.06;;;17.97;100.00
4392;BME280;2210;51.938;8.488;2023-08-17T17:38:35;100849.72;;;18.07;100.00
4392;BME280;2210;51.938;8.488;2023-08-17T17:42:48;100853.31;;;18.02;100.00
4392;BME280;2210;51.938;8.488;2023-08-17T17:46:48;100847.47;;;17.99;100.00
4392;BME280;2210;51.938;8.488;2023-08-17T17:50:48;100851.63;;;17.91;100.00
4392;BME280;2210;51.938;8.488;2023-08-17T17:54:49;100846.31;;;17.84;100.00
4392;BME280;2210;51.938;8.488;2023-08-17T17:58:49;100844.13;;;17.92;100.00
4392;BME280;2210;51.938;8.488;2023-08-17T18:02:49;100841.56;;;17.90;100.00
4392;BME280;2210;51.938;8.488;2023-08-17T18:06:59;100837.44;;;17.93;100.00
4392;BME280;2210;51.938;8.488;2023-08-17T18:10:59;100832.69;;;17.93;100.00
4392;BME280;2210;51.938;8.488;2023-08-17T18:14:59;100830.41;;;17.90;100.00
4392;BME280;2210;51.938;8.488;2023-08-17T18:19:00;100818.72;;;17.83;100.00
4392;BME280;2210;51.938;8.488;2023-08-17T18:23:01;100822.34;;;17.89;100.00
4392;BME280;2210;51.938;8.488;2023-08-17T18:27:13;100815.38;;;17.91;100.00
4392;BME280;2210;51.938;8.488;2023-08-17T18:31:13;100817.34;;;17.96;100.00
4392;BME280;2210;51.938;8.488;2023-08-17T18:35:20;100812.59;;;17.96;100.00
4392;BME280;2210;51.938;8.488;2023-08-17T18:39:29;100819.00;;;18.07;100.00
4392;BME280;2210;51.938;8.488;2023-08-17T18:43:30;100817.91;;;18.03;100.00
4392;BME280;2210;51.938;8.488;2023-08-17T18:47:33;100824.00;;;17.90;100.00
4392;BME280;2210;51.938;8.488;2023-08-17T18:51:40;100822.34;;;17.89;100.00
4392;BME280;2210;51.938;8.488;2023-08-17T18:55:40;100821.22;;;17.84;100.00
4392;BME280;2210;51.938;8.488;2023-08-17T18:59:40;100819.81;;;17.82;100.00
4392;BME280;2210;51.938;8.488;2023-08-17T19:03:50;100832.09;;;17.81;100.00
4392;BME280;2210;51.938;8.488;2023-08-17T19:07:50;100851.06;;;17.79;100.00
4392;BME280;2210;51.938;8.488;2023-08-17T19:11:53;100862.50;;;17.72;100.00
4392;BME280;2210;51.938;8.488;2023-08-17T19:15:54;100854.97;;;17.78;100.00
4392;BME280;2210;51.938;8.488;2023-08-17T19:19:54;100843.53;;;17.74;100.00
4392;BME280;2210;51.938;8.488;2023-08-17T19:23:57;100845.75;;;17.72;100.00
4392;BME280;2210;51.938;8.488;2023-08-17T19:27:58;100844.66;;;17.68;100.00
4392;BME280;2210;51.938;8.488;2023-08-17T19:31:58;100841.03;;;17.62;100.00
4392;BME280;2210;51.938;8.488;2023-08-17T19:35:58;100849.94;;;17.75;100.00
4392;BME280;2210;51.938;8.488;2023-08-17T19:40:11;100861.38;;;17.63;100.00
4392;BME280;2210;51.938;8.488;2023-08-17T19:44:11;100871.97;;;17.66;100.00
4392;BME280;2210;51.938;8.488;2023-08-17T19:48:11;100873.34;;;17.58;100.00
4392;BME280;2210;51.938;8.488;2023-08-17T19:52:12;100887.84;;;17.60;100.00
4392;BME280;2210;51.938;8.488;2023-08-17T19:56:13;100877.53;;;17.50;100.00
4392;BME280;2210;51.938;8.488;2023-08-17T20:00:16;100875.59;;;17.61;100.00
4392;BME280;2210;51.938;8.488;2023-08-17T20:04:20;100866.41;;;17.71;100.00
4392;BME280;2210;51.938;8.488;2023-08-17T20:08:20;100875.59;;;17.61;100.00
4392;BME280;2210;51.938;8.488;2023-08-17T20:12:23;100871.69;;;17.67;100.00
4392;BME280;2210;51.938;8.488;2023-08-17T20:16:23;100868.63;;;17.64;100.00
4392;BME280;2210;51.938;8.488;2023-08-17T20:20:27;100880.31;;;17.56;100.00
4392;BME280;2210;51.938;8.488;2023-08-17T20:24:31;100866.94;;;17.58;100.00
4392;BME280;2210;51.938;8.488;2023-08-17T20:28:32;100873.06;;;17.55;100.00
4392;BME280;2210;51.938;8.488;2023-08-17T20:32:34;100870.84;;;17.67;100.00
4392;BME280;2210;51.938;8.488;2023-08-17T20:36:34;100871.13;;;17.65;100.00
4392;BME280;2210;51.938;8.488;2023-08-17T20:40:35;100864.72;;;17.60;100.00
4392;BME280;2210;51.938;8.488;2023-08-17T20:44:39;100870.56;;;17.53;100.00
4392;BME280;2210;51.938;8.488;2023-08-17T20:48:39;100865.84;;;17.64;100.00
4392;BME280;2210;51.938;8.488;2023-08-17T20:52:40;100861.38;;;17.73;100.00
4392;BME280;2210;51.938;8.488;2023-08-17T20:56:40;100860.25;;;17.64;100.00
4392;BME280;2210;51.938;8.488;2023-08-17T21:00:46;100860.25;;;17.74;100.00
4392;BME280;2210;51.938;8.488;2023-08-17T21:04:50;100859.69;;;17.67;100.00
4392;BME280;2210;51.938;8.488;2023-08-17T21:08:56;100847.44;;;17.78;100.00
4392;BME280;2210;51.938;8.488;2023-08-17T21:12:57;100851.06;;;17.79;100.00
4392;BME280;2210;51.938;8.488;2023-08-17T21:16:58;100847.44;;;17.83;100.00
4392;BME280;2210;51.938;8.488;2023-08-17T21:20:58;100851.91;;;17.90;100.00
4392;BME280;2210;51.938;8.488;2023-08-17T21:24:59;100851.63;;;17.86;100.00
4392;BME280;2210;51.938;8.488;2023-08-17T21:28:59;100849.13;;;17.84;100.00
4392;BME280;2210;51.938;8.488;2023-08-17T21:32:59;100850.50;;;17.82;100.00
4392;BME280;2210;51.938;8.488;2023-08-17T21:37:06;100842.13;;;17.77;100.00
4392;BME280;2210;51.938;8.488;2023-08-17T21:41:07;100839.63;;;17.85;100.00
4392;BME280;2210;51.938;8.488;2023-08-17T21:45:07;100832.66;;;17.78;100.00
4392;BME280;2210;51.938;8.488;2023-08-17T21:49:08;100824.59;;;17.86;100.00
4392;BME280;2210;51.938;8.488;2023-08-17T21:53:08;100815.09;;;17.93;100.00
4392;BME280;2210;51.938;8.488;2023-08-17T21:57:12;100817.88;;;17.82;100.00
4392;BME280;2210;51.938;8.488;2023-08-17T22:01:12;100808.94;;;17.70;100.00
4392;BME280;2210;51.938;8.488;2023-08-17T22:05:12;100813.13;;;17.73;100.00
4392;BME280;2210;51.938;8.488;2023-08-17T22:09:13;100811.72;;;17.70;100.00
4392;BME280;2210;51.938;8.488;2023-08-17T22:13:13;100818.13;;;17.55;100.00
4392;BME280;2210;51.938;8.488;2023-08-17T22:17:13;100824.56;;;17.66;100.00
4392;BME280;2210;51.938;8.488;2023-08-17T22:21:24;100807.28;;;17.59;100.00
4392;BME280;2210;51.938;8.488;2023-08-17T22:25:27;100811.72;;;17.55;100.00
4392;BME280;2210;51.938;8.488;2023-08-17T22:29:31;100806.72;;;17.62;100.00
4392;BME280;2210;51.938;8.488;2023-08-17T22:33:41;100823.44;;;17.67;100.00
4392;BME280;2210;51.938;8.488;2023-08-17T22:37:44;100816.19;;;17.71;100.00
4392;BME280;2210;51.938;8.488;2023-08-17T22:41:47;100822.34;;;17.68;100.00